Archival Weather

Heathrow

Heathrow, United Kingdom (EGLL)

Report from: Thursday, June 23, 2022 6:20 PM BST
Current time: Tuesday, August 16, 2022 8:07 AM BST

Current weather
Weather history
Weather forecast

Temperature24.0°C (75.2°F)
Dew point14.0°C (57.2°F)
Winds 9 kts (4.6 m/s, 10.4 mph) Vrb
Winds variableWinds variable from Southeast (130°) to Southwest (220°)
Visibility6.2 mi. (10 km)
Clouds Sky clear
Altimeter29.74 in.Hg (1007 mB)
Relative humidity54 %
Density altitude1,477 ft. (450 m)
Remarks Fully automated report
No clouds detected
Flight conditions Visual Meteorological Conditions
Raw dataEGLL 231720Z AUTO 17009KT 130V220 9999 NCD 24/14 Q1007
An error has occurred. This application may no longer respond until reloaded. Reload 🗙